Time,TemperatureF,DewpointF,PressureIn,WindDirection,WindDirectionDegrees,WindSpeedMPH,WindSpeedGustMPH,Humidity,HourlyPrecipIn,Conditions,Clouds,dailyrainin,SoftwareType,DateUTC
2013-07-06 00:00:00,71.6,69.0,30.09,SSE,148,2.0,2.0,92,0.00,,,0.00,weatherlink.com 1.10,2013-07-06 04:00:00,
2013-07-06 00:15:00,71.4,69.0,30.09,SSE,148,0.0,1.0,93,0.00,,,0.00,weatherlink.com 1.10,2013-07-06 04:15:00,
2013-07-06 00:30:00,71.2,69.0,30.09,SSE,148,0.0,1.0,93,0.00,,,0.00,weatherlink.com 1.10,2013-07-06 04:30:00,
2013-07-06 00:45:00,70.7,69.0,30.09,ESE,112,0.0,2.0,93,0.00,,,0.00,weatherlink.com 1.10,2013-07-06 04:45:00,
2013-07-06 01:00:00,70.7,69.0,30.09,SE,130,0.0,2.0,94,0.00,,,0.00,weatherlink.com 1.10,2013-07-06 05:00:00,
2013-07-06 01:15:00,70.6,69.0,30.09,SE,130,1.0,1.0,95,0.00,,,0.00,weatherlink.com 1.10,2013-07-06 05:15:00,
2013-07-06 01:30:00,70.4,69.0,30.09,SE,131,0.0,1.0,95,0.00,,,0.00,weatherlink.com 1.10,2013-07-06 05:30:00,
2013-07-06 01:46:00,70.3,69.0,30.09,SE,131,0.0,1.0,95,0.00,,,0.00,weatherlink.com 1.10,2013-07-06 05:46:00,
2013-07-06 02:01:00,69.8,68.0,30.09,SE,131,0.0,2.0,95,0.00,,,0.00,weatherlink.com 1.10,2013-07-06 06:01:00,
2013-07-06 02:16:00,69.8,68.0,30.09,SE,132,1.0,1.0,95,0.00,,,0.00,weatherlink.com 1.10,2013-07-06 06:16:00,
2013-07-06 02:31:00,69.9,69.0,30.09,SSE,151,1.0,1.0,95,0.00,,,0.00,weatherlink.com 1.10,2013-07-06 06:31:00,
2013-07-06 02:46:00,69.9,68.0,30.09,South,185,0.0,2.0,94,0.00,,,0.00,weatherlink.com 1.10,2013-07-06 06:46:00,
2013-07-06 03:01:00,69.8,68.0,30.09,South,185,0.0,1.0,94,0.00,,,0.00,weatherlink.com 1.10,2013-07-06 07:01:00,
2013-07-06 03:16:00,70.0,68.0,30.09,South,186,0.0,2.0,93,0.00,,,0.00,weatherlink.com 1.10,2013-07-06 07:16:00,
2013-07-06 03:31:00,70.3,68.0,30.09,SE,134,0.0,3.0,93,0.00,,,0.00,weatherlink.com 1.10,2013-07-06 07:31:00,
2013-07-06 03:46:00,70.6,68.0,30.09,WNW,283,1.0,2.0,92,0.00,,,0.00,weatherlink.com 1.10,2013-07-06 07:46:00,
2013-07-06 04:01:00,70.8,68.0,30.08,SSE,159,1.0,6.0,91,0.00,,,0.00,weatherlink.com 1.10,2013-07-06 08:01:00,
2013-07-06 04:16:00,70.7,68.0,30.08,SW,223,2.0,3.0,91,0.00,,,0.00,weatherlink.com 1.10,2013-07-06 08:16:00,
2013-07-06 04:31:00,70.6,68.0,30.09,SW,234,1.0,2.0,91,0.00,,,0.00,weatherlink.com 1.10,2013-07-06 08:31:00,
2013-07-06 04:46:00,70.4,68.0,30.08,South,190,0.0,3.0,92,0.00,,,0.00,weatherlink.com 1.10,2013-07-06 08:46:00,
2013-07-06 05:01:00,70.4,68.0,30.08,West,265,0.0,3.0,92,0.00,,,0.00,weatherlink.com 1.10,2013-07-06 09:01:00,
2013-07-06 05:16:00,70.0,68.0,30.09,WSW,254,1.0,3.0,92,0.00,,,0.00,weatherlink.com 1.10,2013-07-06 09:16:00,
2013-07-06 05:31:00,69.8,67.0,30.09,WSW,242,0.0,2.0,92,0.00,,,0.00,weatherlink.com 1.10,2013-07-06 09:31:00,
2013-07-06 05:46:00,69.6,68.0,30.09,WSW,242,0.0,1.0,93,0.00,,,0.00,weatherlink.com 1.10,2013-07-06 09:46:00,
2013-07-06 06:01:00,69.3,68.0,30.09,SSW,205,1.0,2.0,94,0.00,,,0.00,weatherlink.com 1.10,2013-07-06 10:01:00,
2013-07-06 06:16:00,68.9,67.0,30.09,SSW,205,0.0,1.0,93,0.00,,,0.00,weatherlink.com 1.10,2013-07-06 10:16:00,
2013-07-06 06:31:00,68.8,67.0,30.09,SSW,205,0.0,1.0,94,0.00,,,0.00,weatherlink.com 1.10,2013-07-06 10:31:00,
2013-07-06 06:46:00,68.7,67.0,30.09,SSW,205,1.0,2.0,94,0.00,,,0.00,weatherlink.com 1.10,2013-07-06 10:46:00,
2013-07-06 07:01:00,68.4,67.0,30.10,SSW,205,0.0,1.0,94,0.00,,,0.00,weatherlink.com 1.10,2013-07-06 11:01:00,
2013-07-06 07:16:00,68.5,67.0,30.10,SSW,205,0.0,1.0,95,0.00,,,0.00,weatherlink.com 1.10,2013-07-06 11:16:00,
2013-07-06 07:31:00,68.8,67.0,30.10,SSW,205,1.0,1.0,95,0.00,,,0.00,weatherlink.com 1.10,2013-07-06 11:31:00,
2013-07-06 07:46:00,69.7,68.0,30.10,SSW,205,1.0,2.0,94,0.00,,,0.00,weatherlink.com 1.10,2013-07-06 11:46:00,
2013-07-06 08:01:00,70.1,68.0,30.10,SSW,205,1.0,2.0,94,0.00,,,0.00,weatherlink.com 1.10,2013-07-06 12:01:00,
2013-07-06 08:16:00,71.1,68.0,30.10,SSW,200,2.0,6.0,91,0.00,,,0.00,weatherlink.com 1.10,2013-07-06 12:16:00,
2013-07-06 08:31:00,71.7,69.0,30.10,WSW,243,2.0,4.0,91,0.00,,,0.00,weatherlink.com 1.10,2013-07-06 12:31:00,
2013-07-06 08:46:00,72.3,70.0,30.11,SSE,162,1.0,3.0,91,0.00,,,0.00,weatherlink.com 1.10,2013-07-06 12:46:00,
2013-07-06 09:01:00,72.8,70.0,30.11,SW,214,0.0,3.0,90,0.00,,,0.00,weatherlink.com 1.10,2013-07-06 13:01:00,
2013-07-06 09:16:00,73.1,69.0,30.11,WSW,248,1.0,3.0,88,0.00,,,0.00,weatherlink.com 1.10,2013-07-06 13:16:00,
2013-07-06 09:31:00,73.3,70.0,30.11,South,182,1.0,4.0,88,0.00,,,0.00,weatherlink.com 1.10,2013-07-06 13:31:00,
2013-07-06 09:46:00,73.7,70.0,30.11,South,185,2.0,3.0,88,0.00,,,0.00,weatherlink.com 1.10,2013-07-06 13:46:00,
2013-07-06 10:01:00,74.5,70.0,30.10,SSW,193,3.0,3.0,86,0.00,,,0.00,weatherlink.com 1.10,2013-07-06 14:01:00,
2013-07-06 10:17:00,75.3,70.0,30.10,SSE,157,2.0,5.0,84,0.00,,,0.00,weatherlink.com 1.10,2013-07-06 14:17:00,
2013-07-06 10:32:00,75.1,70.0,30.10,SW,226,1.0,3.0,85,0.00,,,0.00,weatherlink.com 1.10,2013-07-06 14:32:00,
2013-07-06 10:47:00,75.6,70.0,30.10,WSW,240,3.0,4.0,82,0.00,,,0.00,weatherlink.com 1.10,2013-07-06 14:47:00,
2013-07-06 11:02:00,76.1,71.0,30.10,West,267,0.0,3.0,84,0.00,,,0.00,weatherlink.com 1.10,2013-07-06 15:02:00,
2013-07-06 11:17:00,77.1,71.0,30.09,SE,144,0.0,4.0,80,0.00,,,0.00,weatherlink.com 1.10,2013-07-06 15:17:00,
2013-07-06 11:32:00,77.0,70.0,30.09,SSW,213,2.0,3.0,80,0.00,,,0.00,weatherlink.com 1.10,2013-07-06 15:32:00,
2013-07-06 11:47:00,77.4,70.0,30.09,South,186,2.0,4.0,78,0.00,,,0.00,weatherlink.com 1.10,2013-07-06 15:47:00,
2013-07-06 12:02:00,77.4,70.0,30.09,SSE,157,2.0,6.0,79,0.00,,,0.00,weatherlink.com 1.10,2013-07-06 16:02:00,
2013-07-06 12:17:00,77.7,70.0,30.09,WSW,255,3.0,9.0,78,0.00,,,0.00,weatherlink.com 1.10,2013-07-06 16:17:00,
2013-07-06 12:32:00,78.4,71.0,30.09,South,171,4.0,4.0,78,0.00,,,0.00,weatherlink.com 1.10,2013-07-06 16:32:00,
2013-07-06 12:47:00,78.5,72.0,30.08,SSE,157,1.0,5.0,79,0.00,,,0.00,weatherlink.com 1.10,2013-07-06 16:47:00,
2013-07-06 13:32:00,79.1,71.0,30.07,South,172,1.0,7.0,77,0.00,,,0.00,weatherlink.com 1.10,2013-07-06 17:32:00,
2013-07-06 14:02:00,79.7,71.0,30.05,South,186,2.0,7.0,75,0.00,,,0.00,weatherlink.com 1.10,2013-07-06 18:02:00,
2013-07-06 14:17:00,80.5,71.0,30.05,SSE,166,3.0,7.0,73,0.00,,,0.00,weatherlink.com 1.10,2013-07-06 18:17:00,
2013-07-06 14:47:00,81.8,72.0,30.04,SE,132,5.0,7.0,73,0.00,,,0.00,weatherlink.com 1.10,2013-07-06 18:47:00,
2013-07-06 15:32:00,78.2,71.0,30.04,SE,132,2.0,10.0,79,0.00,,,0.00,weatherlink.com 1.10,2013-07-06 19:32:00,
2013-07-06 15:47:00,76.4,71.0,30.03,ESE,112,2.0,8.0,83,0.00,,,0.00,weatherlink.com 1.10,2013-07-06 19:47:00,
2013-07-06 16:02:00,76.1,70.0,30.03,SE,146,6.0,7.0,81,0.00,,,0.00,weatherlink.com 1.10,2013-07-06 20:02:00,
2013-07-06 16:17:00,75.5,70.0,30.04,ESE,123,3.0,8.0,82,0.00,,,0.00,weatherlink.com 1.10,2013-07-06 20:17:00,
2013-07-06 16:47:00,74.4,71.0,30.03,ESE,119,0.0,3.0,88,0.00,,,0.00,weatherlink.com 1.10,2013-07-06 20:47:00,
2013-07-06 18:17:00,73.6,71.0,30.01,SE,128,0.0,2.0,92,0.15,,,0.15,weatherlink.com 1.10,2013-07-06 22:17:00,
2013-07-06 18:32:00,72.8,70.0,30.01,SE,142,0.0,3.0,92,0.28,,,0.28,weatherlink.com 1.10,2013-07-06 22:32:00,
2013-07-06 18:48:00,72.3,71.0,30.00,SW,217,0.0,1.0,94,0.32,,,0.32,weatherlink.com 1.10,2013-07-06 22:48:00,
2013-07-06 19:18:00,71.7,70.0,30.00,ESE,111,1.0,2.0,94,0.31,,,0.46,weatherlink.com 1.10,2013-07-06 23:18:00,
2013-07-06 19:49:00,71.1,70.0,29.99,ESE,103,0.0,3.0,96,0.24,,,0.56,weatherlink.com 1.10,2013-07-06 23:49:00,
2013-07-06 20:03:00,71.2,70.0,29.99,ESE,111,1.0,4.0,96,0.18,,,0.56,weatherlink.com 1.10,2013-07-07 00:03:00,
2013-07-06 20:33:00,71.0,70.0,29.99,SSE,152,1.0,3.0,96,0.05,,,0.57,weatherlink.com 1.10,2013-07-07 00:33:00,
2013-07-06 20:48:00,70.7,69.0,30.00,SE,145,2.0,6.0,95,0.01,,,0.57,weatherlink.com 1.10,2013-07-07 00:48:00,
2013-07-06 21:18:00,70.4,69.0,29.99,ENE,68,1.0,1.0,96,0.01,,,0.57,weatherlink.com 1.10,2013-07-07 01:18:00,
2013-07-06 21:33:00,70.4,69.0,30.00,SE,136,0.0,2.0,96,0.00,,,0.57,weatherlink.com 1.10,2013-07-07 01:33:00,
2013-07-06 21:48:00,70.3,69.0,30.00,ESE,121,1.0,2.0,96,0.00,,,0.57,weatherlink.com 1.10,2013-07-07 01:48:00,
2013-07-06 22:18:00,70.4,70.0,30.02,South,169,1.0,2.0,97,0.00,,,0.57,weatherlink.com 1.10,2013-07-07 02:18:00,
2013-07-06 23:03:00,70.1,69.0,30.02,SSE,167,0.0,1.0,96,0.00,,,0.57,weatherlink.com 1.10,2013-07-07 03:03:00,
2013-07-06 23:33:00,70.2,69.0,30.03,South,186,0.0,3.0,97,0.00,,,0.57,weatherlink.com 1.10,2013-07-07 03:33:00,